createdAt,value
2022-09-20T00:00:07.730Z,3.30
2022-09-20T00:00:40.002Z,6.28
2022-09-20T00:01:15.249Z,4.10
2022-09-20T00:01:47.192Z,5.95
2022-09-20T00:02:19.205Z,5.07
2022-09-20T00:02:51.210Z,4.37
2022-09-20T00:03:23.071Z,3.35
2022-09-20T00:03:59.570Z,4.72
2022-09-20T00:04:31.511Z,4.43
2022-09-20T00:05:05.040Z,4.05
2022-09-20T00:05:38.853Z,3.20
2022-09-20T00:06:15.701Z,5.60
2022-09-20T00:06:47.875Z,3.85
2022-09-20T00:07:19.895Z,4.28
2022-09-20T00:07:51.779Z,3.58
2022-09-20T00:08:23.597Z,4.10
2022-09-20T00:08:56.694Z,3.30
2022-09-20T00:09:28.563Z,3.67
2022-09-20T00:10:00.458Z,3.47
2022-09-20T00:10:38.026Z,7.80
2022-09-20T00:11:15.475Z,6.10
2022-09-20T00:11:47.666Z,3.90
2022-09-20T00:12:19.528Z,4.12
2022-09-20T00:12:51.521Z,5.47
2022-09-20T00:13:23.374Z,4.75
2022-09-20T00:13:57.278Z,6.43
2022-09-20T00:14:29.134Z,3.78
2022-09-20T00:15:00.975Z,6.25
2022-09-20T00:15:34.225Z,4.15
2022-09-20T00:16:11.244Z,6.40
2022-09-20T00:16:43.386Z,3.40
2022-09-20T00:17:15.581Z,3.53
2022-09-20T00:17:47.613Z,4.53
2022-09-20T00:18:19.516Z,5.93
2022-09-20T00:18:53.580Z,6.03
2022-09-20T00:19:25.633Z,3.90
2022-09-20T00:19:57.736Z,4.85
2022-09-20T00:20:30.623Z,5.50
2022-09-20T00:21:03.453Z,5.37
2022-09-20T00:21:36.473Z,3.47
2022-09-20T00:22:08.373Z,3.97
2022-09-20T00:22:40.572Z,4.47
2022-09-20T00:23:12.476Z,3.80
2022-09-20T00:23:45.081Z,3.80
2022-09-20T00:24:17.216Z,4.22
2022-09-20T00:24:49.244Z,3.47
2022-09-20T00:25:22.516Z,10.15
2022-09-20T00:25:57.001Z,5.68
2022-09-20T00:26:30.705Z,3.10
2022-09-20T00:27:03.529Z,4.55
2022-09-20T00:27:35.371Z,3.95
2022-09-20T00:28:08.435Z,5.15
2022-09-20T00:28:41.581Z,3.97
2022-09-20T00:29:14.364Z,4.32
2022-09-20T00:29:46.240Z,3.10
2022-09-20T00:30:18.368Z,3.25
2022-09-20T00:30:52.054Z,5.20
2022-09-20T00:31:24.833Z,3.33
2022-09-20T00:31:56.800Z,3.22
2022-09-20T00:32:28.699Z,4.40
2022-09-20T00:33:00.914Z,3.22
2022-09-20T00:33:51.894Z,3.45
2022-09-20T00:34:42.658Z,2.85
2022-09-20T00:35:14.524Z,4.03
2022-09-20T00:35:47.341Z,3.78
2022-09-20T00:36:19.318Z,4.30
2022-09-20T00:36:51.153Z,3.08
2022-09-20T00:37:23.083Z,3.28
2022-09-20T00:37:55.061Z,3.47
2022-09-20T00:38:26.907Z,3.42
2022-09-20T00:39:02.460Z,3.17
2022-09-20T00:39:34.500Z,4.85
2022-09-20T00:40:10.446Z,3.12
2022-09-20T00:40:44.669Z,2.53
2022-09-20T00:41:16.639Z,2.55
2022-09-20T00:41:50.187Z,2.30
2022-09-20T00:42:28.157Z,4.62
2022-09-20T00:43:00.102Z,5.70
2022-09-20T00:43:41.045Z,4.78
2022-09-20T00:44:48.043Z,2.28
2022-09-20T00:45:31.048Z,4.70
2022-09-20T00:46:04.087Z,2.03
2022-09-20T00:46:43.469Z,3.42
2022-09-20T00:47:44.758Z,2.03
2022-09-20T00:48:28.403Z,2.40
2022-09-20T00:49:25.629Z,2.95
2022-09-20T00:50:30.566Z,2.05
2022-09-20T00:51:09.012Z,3.17
2022-09-20T00:51:46.013Z,2.00
2022-09-20T00:52:20.564Z,3.53
2022-09-20T00:53:08.448Z,1.75
2022-09-20T00:53:45.469Z,2.45
2022-09-20T00:54:20.854Z,2.67
2022-09-20T00:54:56.487Z,2.70
2022-09-20T00:55:30.480Z,2.67
2022-09-20T00:56:22.269Z,4.30
2022-09-20T00:56:54.215Z,2.35
2022-09-20T00:57:26.493Z,2.35
2022-09-20T00:58:00.295Z,2.28
2022-09-20T00:58:37.119Z,9.05
2022-09-20T00:59:18.049Z,1.87
2022-09-20T00:59:53.050Z,1.67
2022-09-20T01:00:27.461Z,1.65
2022-09-20T01:00:59.971Z,1.73
2022-09-20T01:01:32.682Z,1.80
2022-09-20T01:02:25.575Z,4.53
2022-09-20T01:03:01.547Z,2.12
2022-09-20T01:03:36.603Z,1.87
2022-09-20T01:04:12.260Z,2.35
2022-09-20T01:04:49.231Z,1.62
2022-09-20T01:05:22.049Z,2.05
2022-09-20T01:05:57.115Z,1.92
2022-09-20T01:06:32.894Z,2.92
2022-09-20T01:07:08.123Z,1.77
2022-09-20T01:07:43.007Z,2.30
2022-09-20T01:08:15.626Z,5.07
2022-09-20T01:08:52.116Z,2.15
2022-09-20T01:09:25.164Z,2.60
2022-09-20T01:09:58.301Z,2.33
2022-09-20T01:10:31.759Z,2.92
2022-09-20T01:11:04.097Z,2.17
2022-09-20T01:11:37.598Z,2.92
2022-09-20T01:12:18.238Z,2.50
2022-09-20T01:12:53.136Z,2.12
2022-09-20T01:13:25.098Z,1.77
2022-09-20T01:13:57.936Z,1.52
2022-09-20T01:14:30.491Z,2.22
2022-09-20T01:15:07.778Z,1.92
2022-09-20T01:15:40.544Z,2.17
2022-09-20T01:16:16.028Z,2.70
2022-09-20T01:16:48.608Z,1.77
2022-09-20T01:17:23.958Z,2.95
2022-09-20T01:17:58.391Z,1.83
2022-09-20T01:18:33.274Z,4.93
2022-09-20T01:19:33.053Z,5.82
2022-09-20T01:20:16.237Z,2.70
2022-09-20T01:20:49.288Z,1.55
2022-09-20T01:21:21.593Z,2.47
2022-09-20T01:21:54.125Z,2.05
2022-09-20T01:22:41.660Z,1.50
2022-09-20T01:23:28.647Z,2.20
2022-09-20T01:24:03.175Z,1.90
2022-09-20T01:25:03.190Z,1.67
2022-09-20T01:25:44.083Z,1.75
2022-09-20T01:26:40.049Z,1.50
2022-09-20T01:27:29.323Z,3.37
2022-09-20T01:28:01.245Z,2.53
2022-09-20T01:28:34.169Z,5.50
2022-09-20T01:29:33.913Z,5.25
2022-09-20T01:30:18.667Z,1.95
2022-09-20T01:30:50.468Z,1.80
2022-09-20T01:31:40.917Z,4.37
2022-09-20T01:32:23.690Z,5.03
2022-09-20T01:33:12.108Z,5.45
2022-09-20T01:33:54.018Z,3.05
2022-09-20T01:34:58.255Z,1.65
2022-09-20T01:35:34.419Z,5.35
2022-09-20T01:36:07.645Z,2.12
2022-09-20T01:36:48.740Z,3.37
2022-09-20T01:37:28.130Z,2.80
2022-09-20T01:38:17.691Z,3.45
2022-09-20T01:39:28.356Z,4.55
2022-09-20T01:40:20.779Z,1.42
2022-09-20T01:40:59.623Z,4.20
2022-09-20T01:41:48.793Z,2.83
2022-09-20T01:42:30.946Z,1.62
2022-09-20T01:43:16.452Z,4.22
2022-09-20T01:44:17.754Z,1.42
2022-09-20T01:44:58.438Z,5.70
2022-09-20T01:45:32.775Z,1.75
2022-09-20T01:46:17.079Z,1.85
2022-09-20T01:47:00.127Z,1.85
2022-09-20T01:47:44.208Z,1.62
2022-09-20T01:48:33.962Z,4.32
2022-09-20T01:49:14.007Z,4.70
2022-09-20T01:50:08.015Z,3.12
2022-09-20T01:51:07.992Z,5.45
2022-09-20T01:52:10.890Z,5.05
2022-09-20T01:53:10.901Z,1.98
2022-09-20T01:54:23.847Z,1.52
2022-09-20T01:55:02.026Z,1.98
2022-09-20T01:56:04.743Z,1.83
2022-09-20T01:57:01.712Z,1.20
2022-09-20T01:57:57.271Z,7.22
2022-09-20T01:59:22.085Z,2.67
2022-09-20T02:00:08.307Z,1.92
2022-09-20T02:01:10.474Z,2.40
2022-09-20T02:01:54.371Z,1.50
2022-09-20T02:02:51.527Z,1.80
2022-09-20T02:03:41.793Z,1.73
2022-09-20T02:04:43.220Z,2.27
2022-09-20T02:05:17.936Z,1.58
2022-09-20T02:06:01.713Z,1.95
2022-09-20T02:07:12.210Z,2.65
2022-09-20T02:07:52.314Z,1.58
2022-09-20T02:08:53.336Z,2.00
2022-09-20T02:09:30.902Z,3.08
2022-09-20T02:10:08.531Z,2.33
2022-09-20T02:10:53.419Z,6.78
2022-09-20T02:11:59.289Z,1.75
2022-09-20T02:12:56.956Z,1.87
2022-09-20T02:13:45.826Z,2.78
2022-09-20T02:14:39.307Z,1.33
2022-09-20T02:15:44.424Z,2.50
2022-09-20T02:16:39.279Z,1.98
2022-09-20T02:17:20.245Z,3.05
2022-09-20T02:18:12.625Z,2.12
2022-09-20T02:19:25.005Z,2.53
2022-09-20T02:20:02.728Z,1.23
2022-09-20T02:21:16.067Z,1.95
2022-09-20T02:22:02.704Z,2.00
2022-09-20T02:23:03.893Z,2.53
2022-09-20T02:23:56.905Z,1.87
2022-09-20T02:24:50.912Z,1.83
2022-09-20T02:25:41.129Z,5.80
2022-09-20T02:26:33.577Z,3.93
2022-09-20T02:27:23.977Z,1.65
2022-09-20T02:28:11.797Z,1.55
2022-09-20T02:29:02.004Z,3.03
2022-09-20T02:30:08.025Z,3.47
2022-09-20T02:30:52.380Z,2.25
2022-09-20T02:31:52.219Z,1.67
2022-09-20T02:32:49.529Z,2.85
2022-09-20T02:33:34.415Z,3.65
2022-09-20T02:34:25.089Z,2.62
2022-09-20T02:35:35.401Z,2.08
2022-09-20T02:36:30.847Z,1.15
2022-09-20T02:37:21.537Z,1.92
2022-09-20T02:38:14.401Z,1.42
2022-09-20T02:39:03.028Z,2.53
2022-09-20T02:39:52.504Z,3.53
2022-09-20T02:41:06.744Z,1.40
2022-09-20T02:41:51.494Z,1.83
2022-09-20T02:42:33.387Z,2.78
2022-09-20T02:43:14.837Z,4.85
2022-09-20T02:44:08.568Z,2.33
2022-09-20T02:45:09.230Z,5.03
2022-09-20T02:45:44.212Z,3.03
2022-09-20T02:46:55.021Z,2.00
2022-09-20T02:47:34.411Z,3.33
2022-09-20T02:48:06.385Z,2.20
2022-09-20T02:49:08.628Z,2.65
2022-09-20T02:50:15.025Z,1.80
2022-09-20T02:50:59.836Z,1.33
2022-09-20T02:51:41.180Z,2.05
2022-09-20T02:52:25.173Z,1.85
2022-09-20T02:53:06.195Z,2.87
2022-09-20T02:54:01.127Z,2.25
2022-09-20T02:54:55.001Z,2.95
2022-09-20T02:56:05.086Z,2.85
2022-09-20T02:56:54.553Z,1.42
2022-09-20T02:57:29.229Z,1.42
2022-09-20T02:58:19.531Z,3.87
2022-09-20T02:59:10.118Z,1.85
2022-09-20T02:59:46.960Z,1.87
2022-09-20T03:00:30.283Z,2.53
2022-09-20T03:01:31.568Z,4.00
2022-09-20T03:02:41.552Z,2.78
2022-09-20T03:03:26.604Z,3.22
2022-09-20T03:04:25.819Z,4.18
2022-09-20T03:05:16.748Z,1.77
2022-09-20T03:07:02.256Z,4.75
2022-09-20T03:07:43.827Z,4.32
2022-09-20T03:08:48.870Z,1.33
2022-09-20T03:09:35.720Z,2.20
2022-09-20T03:10:34.661Z,1.73
2022-09-20T03:11:47.636Z,2.70
2022-09-20T03:12:19.518Z,2.17
2022-09-20T03:13:12.459Z,1.75
2022-09-20T03:14:23.351Z,2.55
2022-09-20T03:15:35.758Z,1.42
2022-09-20T03:16:07.874Z,3.05
2022-09-20T03:17:09.261Z,2.12
2022-09-20T03:17:42.545Z,4.05
2022-09-20T03:18:29.509Z,1.90
2022-09-20T03:19:35.853Z,2.22
2022-09-20T03:20:19.555Z,3.87
2022-09-20T03:21:25.093Z,3.28
2022-09-20T03:22:14.680Z,2.30
2022-09-20T03:23:12.343Z,4.40
2022-09-20T03:24:05.564Z,2.87
2022-09-20T03:25:09.528Z,3.83
2022-09-20T03:25:47.119Z,3.58
2022-09-20T03:26:42.534Z,3.75
2022-09-20T03:27:29.786Z,1.55
2022-09-20T03:28:28.499Z,2.97
2022-09-20T03:29:33.022Z,3.33
2022-09-20T03:30:16.711Z,3.08
2022-09-20T03:30:58.785Z,1.95
2022-09-20T03:31:55.338Z,3.85
2022-09-20T03:33:06.183Z,9.55
2022-09-20T03:33:50.446Z,2.70
2022-09-20T03:34:48.601Z,6.18
2022-09-20T03:35:49.400Z,4.57
2022-09-20T03:37:06.040Z,2.08
2022-09-20T03:38:05.981Z,2.47
2022-09-20T03:39:12.302Z,2.65
2022-09-20T03:40:21.998Z,2.70
2022-09-20T03:41:22.131Z,3.05
2022-09-20T03:42:14.171Z,5.37
2022-09-20T03:43:04.644Z,4.00
2022-09-20T03:43:40.606Z,6.30
2022-09-20T03:44:37.828Z,6.30
2022-09-20T03:45:26.259Z,10.57
2022-09-20T03:46:27.003Z,7.87
2022-09-20T03:47:19.563Z,9.90
2022-09-20T03:48:01.134Z,7.57
2022-09-20T03:49:07.521Z,12.13
2022-09-20T03:50:13.202Z,10.85
2022-09-20T03:51:04.210Z,12.57
2022-09-20T03:51:57.217Z,14.85
2022-09-20T03:52:29.943Z,13.52
2022-09-20T03:53:13.916Z,13.68
2022-09-20T03:54:19.179Z,16.17
2022-09-20T03:55:15.803Z,16.55
2022-09-20T03:56:09.177Z,13.48
2022-09-20T03:57:11.004Z,18.23
2022-09-20T03:58:11.081Z,14.77
2022-09-20T03:58:57.839Z,14.60
2022-09-20T03:59:42.072Z,14.43
2022-09-20T04:00:22.744Z,20.17
2022-09-20T04:01:25.017Z,13.05
2022-09-20T04:02:34.203Z,12.85
2022-09-20T04:03:28.929Z,10.63
2022-09-20T04:04:14.348Z,10.77
2022-09-20T04:05:23.131Z,8.52
2022-09-20T04:06:36.896Z,11.15
2022-09-20T04:07:23.617Z,9.77
2022-09-20T04:08:21.457Z,15.85
2022-09-20T04:09:05.310Z,8.70
2022-09-20T04:09:52.553Z,9.07
2022-09-20T04:10:27.228Z,7.87
2022-09-20T04:11:19.983Z,9.85
2022-09-20T04:12:13.840Z,7.00
2022-09-20T04:12:51.692Z,7.75
2022-09-20T04:13:40.159Z,5.55
2022-09-20T04:14:49.944Z,7.72
2022-09-20T04:16:00.252Z,23.27
2022-09-20T04:16:32.463Z,32.88
2022-09-20T04:17:47.564Z,34.40
2022-09-20T04:18:43.839Z,32.17
2022-09-20T04:19:37.778Z,27.40
2022-09-20T04:20:20.746Z,33.95
2022-09-20T04:21:31.875Z,38.90
2022-09-20T04:22:07.473Z,73.35
2022-09-20T04:22:41.354Z,79.43
2022-09-20T04:23:29.888Z,57.08
2022-09-20T04:24:29.781Z,18.77
2022-09-20T04:25:17.501Z,33.40
2022-09-20T04:25:51.422Z,36.38
2022-09-20T04:26:30.065Z,57.20
2022-09-20T04:27:21.137Z,59.60
2022-09-20T04:28:09.688Z,51.85
2022-09-20T04:28:48.696Z,52.65
2022-09-20T04:29:23.142Z,58.65
2022-09-20T04:30:17.468Z,81.20
2022-09-20T04:30:55.406Z,106.00
2022-09-20T04:31:30.332Z,77.53
2022-09-20T04:32:24.235Z,84.68
2022-09-20T04:33:31.343Z,37.72
2022-09-20T04:34:09.069Z,12.32
2022-09-20T04:35:14.430Z,13.75
2022-09-20T04:36:11.127Z,10.35
2022-09-20T04:37:05.036Z,7.72
2022-09-20T04:37:38.441Z,7.32
2022-09-20T04:38:16.780Z,6.85
2022-09-20T04:38:57.908Z,6.40
2022-09-20T04:40:09.968Z,23.87
2022-09-20T04:41:03.996Z,13.70
2022-09-20T04:41:53.984Z,15.20
2022-09-20T04:43:13.558Z,13.32
2022-09-20T04:43:51.168Z,20.17
2022-09-20T04:44:38.081Z,32.33
2022-09-20T04:45:54.364Z,25.73
2022-09-20T04:46:55.827Z,20.62
2022-09-20T04:47:58.336Z,26.12
2022-09-20T04:48:42.534Z,29.17
2022-09-20T04:49:31.510Z,45.33
2022-09-20T04:50:12.623Z,38.03
2022-09-20T04:51:40.390Z,43.13
2022-09-20T04:52:30.456Z,35.25
2022-09-20T04:53:23.366Z,21.17
2022-09-20T04:54:25.507Z,21.73
2022-09-20T04:55:03.465Z,20.10
2022-09-20T04:55:59.095Z,17.58
2022-09-20T04:57:06.046Z,20.77
2022-09-20T04:57:53.936Z,22.23
2022-09-20T04:58:53.562Z,18.08
2022-09-20T04:59:28.863Z,17.48
2022-09-20T05:00:12.828Z,17.42
2022-09-20T05:01:16.939Z,19.17
2022-09-20T05:02:40.034Z,16.42
2022-09-20T05:03:42.619Z,18.25
2022-09-20T05:04:58.712Z,14.75
2022-09-20T05:05:36.787Z,20.98
2022-09-20T05:06:27.199Z,14.40
2022-09-20T05:07:36.649Z,11.60
2022-09-20T05:08:45.692Z,12.82
2022-09-20T05:09:29.448Z,14.07
2022-09-20T05:10:41.141Z,11.60
2022-09-20T05:12:29.750Z,9.55
2022-09-20T05:13:22.114Z,14.70
2022-09-20T05:14:13.035Z,11.10
2022-09-20T05:15:08.200Z,16.62
2022-09-20T05:16:02.354Z,7.47
2022-09-20T05:16:58.208Z,12.05
2022-09-20T05:17:44.797Z,10.32
2022-09-20T05:18:35.121Z,14.80
2022-09-20T05:19:13.157Z,12.23
2022-09-20T05:20:01.545Z,11.60
2022-09-20T05:20:45.747Z,7.47
2022-09-20T05:22:02.028Z,9.57
2022-09-20T05:22:58.754Z,10.98
2022-09-20T05:24:03.023Z,8.57
2022-09-20T05:24:52.602Z,6.75
2022-09-20T05:25:42.921Z,6.30
2022-09-20T05:26:36.122Z,8.52
2022-09-20T05:27:11.278Z,7.90
2022-09-20T05:28:07.391Z,8.35
2022-09-20T05:29:10.156Z,6.03
2022-09-20T05:30:04.984Z,7.75
2022-09-20T05:30:45.550Z,9.88
2022-09-20T05:31:30.898Z,6.97
2022-09-20T05:32:18.459Z,6.85
2022-09-20T05:33:00.148Z,10.80
2022-09-20T05:34:03.428Z,12.32
2022-09-20T05:34:42.476Z,5.25
2022-09-20T05:35:32.732Z,9.90
2022-09-20T05:36:23.631Z,9.18
2022-09-20T05:37:09.113Z,8.70
2022-09-20T05:37:51.991Z,5.25
2022-09-20T05:39:34.362Z,6.60
2022-09-20T05:40:24.798Z,9.68
2022-09-20T05:41:34.073Z,3.85
2022-09-20T05:42:30.108Z,7.85
2022-09-20T05:43:16.758Z,7.43
2022-09-20T05:43:57.700Z,9.98
2022-09-20T05:45:00.710Z,10.48
2022-09-20T05:45:35.591Z,6.12
2022-09-20T05:46:41.064Z,4.72
2022-09-20T05:47:40.300Z,32.00
2022-09-20T05:48:18.213Z,13.73
2022-09-20T05:49:18.244Z,4.32
2022-09-20T05:50:27.303Z,2.87
2022-09-20T05:51:45.768Z,3.55
2022-09-20T05:52:43.119Z,3.58
2022-09-20T05:53:36.397Z,3.95
2022-09-20T05:54:27.209Z,5.95
2022-09-20T05:55:40.160Z,4.07
2022-09-20T05:56:36.440Z,2.95
2022-09-20T05:57:56.534Z,1.48
2022-09-20T05:58:46.134Z,2.53
2022-09-20T05:59:42.868Z,2.30
2022-09-20T06:00:24.577Z,5.35
2022-09-20T06:01:27.035Z,3.47
2022-09-20T06:02:36.710Z,3.55
2022-09-20T06:03:17.493Z,1.83
2022-09-20T06:04:42.145Z,4.97
2022-09-20T06:05:22.878Z,3.47
2022-09-20T06:06:57.608Z,4.12
2022-09-20T06:07:56.892Z,3.58
2022-09-20T06:08:35.832Z,4.18
2022-09-20T06:09:22.799Z,9.32
2022-09-20T06:10:15.283Z,5.35
2022-09-20T06:11:12.335Z,2.65
2022-09-20T06:11:47.140Z,3.95
2022-09-20T06:12:52.524Z,3.53
2022-09-20T06:13:33.080Z,4.35
2022-09-20T06:14:36.611Z,2.33
2022-09-20T06:15:45.247Z,2.80
2022-09-20T06:16:39.702Z,3.50
2022-09-20T06:17:24.339Z,3.05
2022-09-20T06:18:04.905Z,4.05
2022-09-20T06:18:43.040Z,6.47
2022-09-20T06:19:23.673Z,3.50
2022-09-20T06:20:19.880Z,6.60
2022-09-20T06:21:19.584Z,4.05
2022-09-20T06:21:52.761Z,5.25
2022-09-20T06:22:31.215Z,2.03
2022-09-20T06:23:05.541Z,6.05
2022-09-20T06:23:37.575Z,3.08
2022-09-20T06:24:37.957Z,2.40
2022-09-20T06:25:09.709Z,4.12
2022-09-20T06:26:02.046Z,6.32
2022-09-20T06:26:37.174Z,3.30
2022-09-20T06:27:24.380Z,4.87
2022-09-20T06:27:59.021Z,2.72
2022-09-20T06:28:35.131Z,3.55
2022-09-20T06:29:13.199Z,4.97
2022-09-20T06:29:52.403Z,4.40
2022-09-20T06:30:34.941Z,3.97
2022-09-20T06:31:10.195Z,3.55
2022-09-20T06:31:42.085Z,3.35
2022-09-20T06:32:17.536Z,3.80
2022-09-20T06:32:59.118Z,5.03
2022-09-20T06:33:31.358Z,4.05
2022-09-20T06:34:10.500Z,3.70
2022-09-20T06:34:42.348Z,4.32
2022-09-20T06:35:14.309Z,2.97
2022-09-20T06:36:24.383Z,3.67
2022-09-20T06:38:13.629Z,3.65
2022-09-20T06:39:32.432Z,2.83
2022-09-20T06:40:28.611Z,2.67
2022-09-20T06:41:20.783Z,2.12
2022-09-20T06:41:53.611Z,7.47
2022-09-20T06:42:27.339Z,4.65
2022-09-20T06:43:00.799Z,5.90
2022-09-20T06:43:32.707Z,2.80
2022-09-20T06:44:06.446Z,2.75
2022-09-20T06:44:43.281Z,2.08
2022-09-20T06:45:15.174Z,3.25
2022-09-20T06:45:48.402Z,2.90
2022-09-20T06:46:20.871Z,2.40
2022-09-20T06:46:55.765Z,3.10
2022-09-20T06:47:27.606Z,3.55
2022-09-20T06:48:02.280Z,3.00
2022-09-20T06:48:34.441Z,4.60
2022-09-20T06:49:09.559Z,2.80
2022-09-20T06:49:42.418Z,2.35
2022-09-20T06:50:17.327Z,1.77
2022-09-20T06:50:50.024Z,2.90
2022-09-20T06:51:23.659Z,4.75
2022-09-20T06:51:55.873Z,2.70
2022-09-20T06:52:28.173Z,4.37
2022-09-20T06:53:00.229Z,3.35
2022-09-20T06:53:35.332Z,2.62
2022-09-20T06:54:12.279Z,2.83
2022-09-20T06:54:50.218Z,5.03
2022-09-20T06:55:30.330Z,3.70
2022-09-20T06:56:02.589Z,3.80
2022-09-20T06:56:36.807Z,8.02
2022-09-20T06:57:10.517Z,6.10
2022-09-20T06:57:42.441Z,3.12
2022-09-20T06:58:14.998Z,3.45
2022-09-20T06:58:47.120Z,3.10
2022-09-20T06:59:19.272Z,5.72
2022-09-20T06:59:51.110Z,4.93
2022-09-20T07:00:23.243Z,3.17
2022-09-20T07:00:55.521Z,2.55
2022-09-20T07:01:30.430Z,5.00
2022-09-20T07:02:02.746Z,3.10
2022-09-20T07:02:34.663Z,2.40
2022-09-20T07:03:07.137Z,4.25
2022-09-20T07:03:39.348Z,3.33
2022-09-20T07:04:11.199Z,2.35
2022-09-20T07:04:44.630Z,2.87
2022-09-20T07:05:18.101Z,4.85
2022-09-20T07:05:50.137Z,3.85
2022-09-20T07:06:21.983Z,3.58
2022-09-20T07:07:02.121Z,1.48
2022-09-20T07:07:36.000Z,2.87
2022-09-20T07:08:07.971Z,5.50
2022-09-20T07:08:39.803Z,3.05
2022-09-20T07:09:11.702Z,6.47
2022-09-20T07:09:43.863Z,4.70
2022-09-20T07:10:16.108Z,1.85
2022-09-20T07:10:48.202Z,2.30
2022-09-20T07:11:20.381Z,2.17
2022-09-20T07:11:52.212Z,3.80
2022-09-20T07:12:24.731Z,5.43
2022-09-20T07:13:01.810Z,4.03
2022-09-20T07:13:34.173Z,4.15
2022-09-20T07:14:07.497Z,3.95
2022-09-20T07:14:40.025Z,4.22
2022-09-20T07:15:12.172Z,2.90
2022-09-20T07:15:44.306Z,2.45
2022-09-20T07:16:16.566Z,1.42
2022-09-20T07:16:48.501Z,4.87
2022-09-20T07:17:22.117Z,2.60
2022-09-20T07:17:54.088Z,2.72
2022-09-20T07:18:25.928Z,1.85
2022-09-20T07:18:57.860Z,3.15
2022-09-20T07:19:29.811Z,4.78
2022-09-20T07:20:01.930Z,1.75
2022-09-20T07:20:35.105Z,3.03
2022-09-20T07:21:17.599Z,3.95
2022-09-20T07:21:49.501Z,3.70
2022-09-20T07:22:21.328Z,2.35
2022-09-20T07:22:53.704Z,2.92
2022-09-20T07:23:27.212Z,2.92
2022-09-20T07:23:59.050Z,1.87
2022-09-20T07:24:33.690Z,1.85
2022-09-20T07:25:06.003Z,1.52
2022-09-20T07:25:38.349Z,5.85
2022-09-20T07:26:20.943Z,2.55
2022-09-20T07:27:01.485Z,2.78
2022-09-20T07:27:33.352Z,2.80
2022-09-20T07:28:05.220Z,2.45
2022-09-20T07:28:37.101Z,2.92
2022-09-20T07:29:09.617Z,4.18
2022-09-20T07:29:41.499Z,5.80
2022-09-20T07:30:14.713Z,2.08
2022-09-20T07:30:47.797Z,3.90
2022-09-20T07:31:22.899Z,2.55
2022-09-20T07:31:56.144Z,3.80
2022-09-20T07:32:28.145Z,4.15
2022-09-20T07:33:00.660Z,2.78
2022-09-20T07:33:32.695Z,2.78
2022-09-20T07:34:04.547Z,4.35
2022-09-20T07:34:36.440Z,3.28
2022-09-20T07:35:10.090Z,3.42
2022-09-20T07:35:41.908Z,2.15
2022-09-20T07:36:15.118Z,2.03
2022-09-20T07:36:48.007Z,3.67
2022-09-20T07:37:20.226Z,2.92
2022-09-20T07:37:57.881Z,2.97
2022-09-20T07:38:29.719Z,2.42
2022-09-20T07:39:01.593Z,2.53
2022-09-20T07:39:33.427Z,6.22
2022-09-20T07:40:05.773Z,3.28
2022-09-20T07:40:37.693Z,2.90
2022-09-20T07:41:10.643Z,3.33
2022-09-20T07:41:46.600Z,3.90
2022-09-20T07:42:18.444Z,2.28
2022-09-20T07:42:54.219Z,2.37
2022-09-20T07:43:30.246Z,3.60
2022-09-20T07:44:20.924Z,3.35
2022-09-20T07:44:53.194Z,2.85
2022-09-20T07:45:25.597Z,4.22
2022-09-20T07:45:59.358Z,2.83
2022-09-20T07:46:36.144Z,2.37
2022-09-20T07:47:14.053Z,3.03
2022-09-20T07:47:46.680Z,4.03
2022-09-20T07:48:18.564Z,1.67
2022-09-20T07:48:50.392Z,4.05
2022-09-20T07:49:22.603Z,3.87
2022-09-20T07:49:55.410Z,4.40
2022-09-20T07:50:27.285Z,4.90
2022-09-20T07:51:05.720Z,2.12
2022-09-20T07:51:40.351Z,2.37
2022-09-20T07:52:14.664Z,1.48
2022-09-20T07:52:46.698Z,2.78
2022-09-20T07:53:18.822Z,3.70
2022-09-20T07:53:54.597Z,2.75
2022-09-20T07:54:27.588Z,2.45
2022-09-20T07:54:59.407Z,2.40
2022-09-20T07:55:31.316Z,4.43
2022-09-20T07:56:21.364Z,1.70
2022-09-20T07:56:53.507Z,1.42
2022-09-20T07:57:25.655Z,3.80
2022-09-20T07:57:57.695Z,3.03
2022-09-20T07:58:30.982Z,2.72
2022-09-20T07:59:02.861Z,2.92
2022-09-20T07:59:34.830Z,2.05
2022-09-20T08:00:08.397Z,1.67
2022-09-20T08:00:44.114Z,2.87
2022-09-20T08:01:16.361Z,4.32
2022-09-20T08:01:48.396Z,1.90
2022-09-20T08:02:20.451Z,2.87
2022-09-20T08:03:03.138Z,2.60
2022-09-20T08:03:35.546Z,2.30
2022-09-20T08:04:08.900Z,1.52
2022-09-20T08:04:40.773Z,1.40
2022-09-20T08:05:12.895Z,2.37
2022-09-20T08:05:44.794Z,2.78
2022-09-20T08:06:18.496Z,1.98
2022-09-20T08:06:50.364Z,1.85
2022-09-20T08:07:22.266Z,1.45
2022-09-20T08:07:55.314Z,3.65
2022-09-20T08:08:29.052Z,4.35
2022-09-20T08:09:01.003Z,1.52
2022-09-20T08:09:32.854Z,1.60
2022-09-20T08:10:05.662Z,2.35
2022-09-20T08:10:41.305Z,1.92
2022-09-20T08:11:18.923Z,1.95
2022-09-20T08:11:51.283Z,1.85
2022-09-20T08:14:12.884Z,3.30
2022-09-20T08:14:44.737Z,3.53
2022-09-20T08:15:16.726Z,1.65
2022-09-20T08:15:48.863Z,1.37
2022-09-20T08:16:21.733Z,2.12
2022-09-20T08:16:56.252Z,4.18
2022-09-20T08:17:28.512Z,1.48
2022-09-20T08:18:00.479Z,3.42
2022-09-20T08:18:34.411Z,1.77
2022-09-20T08:19:06.418Z,2.12
2022-09-20T08:19:40.073Z,2.15
2022-09-20T08:20:11.977Z,1.40
2022-09-20T08:20:43.839Z,5.85
2022-09-20T08:21:15.973Z,4.00
2022-09-20T08:21:48.272Z,1.95
2022-09-20T08:22:20.447Z,2.25
2022-09-20T08:23:12.936Z,2.03
2022-09-20T08:23:48.333Z,3.55
2022-09-20T08:24:20.402Z,2.53
2022-09-20T08:24:52.298Z,3.03
2022-09-20T08:25:24.165Z,2.62
2022-09-20T08:25:57.349Z,2.12
2022-09-20T08:26:31.115Z,4.45
2022-09-20T08:27:03.107Z,1.92
2022-09-20T08:27:35.234Z,3.08
2022-09-20T08:28:07.088Z,5.28
2022-09-20T08:28:39.932Z,1.83
2022-09-20T08:29:13.416Z,3.28
2022-09-20T08:29:45.245Z,3.47
2022-09-20T08:30:17.361Z,3.20
2022-09-20T08:30:49.191Z,2.17
2022-09-20T08:31:24.286Z,2.55
2022-09-20T08:31:58.307Z,2.05
2022-09-20T08:32:30.204Z,3.70
2022-09-20T08:33:04.287Z,2.62
2022-09-20T08:33:38.033Z,3.37
2022-09-20T08:34:12.850Z,3.20
2022-09-20T08:34:49.197Z,5.60
2022-09-20T08:35:22.602Z,1.40
2022-09-20T08:35:57.726Z,2.03
2022-09-20T08:36:36.075Z,3.55
2022-09-20T08:37:08.645Z,1.58
2022-09-20T08:37:43.563Z,5.20
2022-09-20T08:40:00.382Z,3.30
2022-09-20T08:40:32.445Z,2.90
2022-09-20T08:41:15.590Z,2.10
2022-09-20T08:41:57.065Z,1.42
2022-09-20T08:42:36.766Z,1.80
2022-09-20T08:43:12.029Z,3.22
2022-09-20T08:43:56.216Z,1.98
2022-09-20T08:44:35.227Z,3.58
2022-09-20T08:45:22.220Z,2.00
2022-09-20T08:45:58.154Z,1.45
2022-09-20T08:46:35.510Z,2.72
2022-09-20T08:47:22.632Z,1.67
2022-09-20T08:47:59.496Z,2.80
2022-09-20T08:48:33.904Z,2.45
2022-09-20T08:49:10.863Z,3.30
2022-09-20T08:49:46.037Z,1.92
2022-09-20T08:50:18.463Z,3.10
2022-09-20T08:50:50.295Z,1.65
2022-09-20T08:51:23.533Z,2.65
2022-09-20T08:51:58.119Z,4.35
2022-09-20T08:52:37.436Z,2.67
2022-09-20T08:53:14.867Z,2.53
2022-09-20T08:53:52.567Z,1.83
2022-09-20T08:54:32.851Z,3.15
2022-09-20T08:55:17.550Z,4.25
2022-09-20T08:55:49.441Z,1.60
2022-09-20T08:56:22.810Z,2.42
2022-09-20T08:56:55.020Z,5.55
2022-09-20T08:57:33.747Z,2.42
2022-09-20T08:58:08.738Z,1.85
2022-09-20T08:58:40.999Z,1.83
2022-09-20T08:59:21.026Z,2.60
2022-09-20T08:59:53.192Z,3.37
2022-09-20T09:00:32.454Z,1.45
2022-09-20T09:01:04.389Z,1.65
2022-09-20T09:01:36.706Z,2.03
2022-09-20T09:02:20.826Z,1.85
2022-09-20T09:02:56.529Z,2.45
2022-09-20T09:03:28.446Z,1.15
2022-09-20T09:04:24.120Z,2.40
2022-09-20T09:04:56.391Z,2.03
2022-09-20T09:05:33.725Z,3.72
2022-09-20T09:06:11.206Z,3.33
2022-09-20T09:06:47.706Z,1.85
2022-09-20T09:07:21.921Z,6.12
2022-09-20T09:07:53.900Z,3.15
2022-09-20T09:08:38.316Z,1.73
2022-09-20T09:09:21.024Z,2.75
2022-09-20T09:09:55.334Z,3.22
2022-09-20T09:10:45.099Z,2.80
2022-09-20T09:11:18.768Z,2.12
2022-09-20T09:11:52.204Z,1.25
2022-09-20T09:12:25.527Z,2.20
2022-09-20T09:12:59.629Z,1.25
2022-09-20T09:13:53.705Z,4.32
2022-09-20T09:14:47.437Z,1.70
2022-09-20T09:15:29.307Z,1.98
2022-09-20T09:16:10.100Z,2.17
2022-09-20T09:16:42.189Z,1.15
2022-09-20T09:17:17.503Z,1.70
2022-09-20T09:17:49.358Z,1.92
2022-09-20T09:18:21.251Z,2.58
2022-09-20T09:18:53.588Z,1.67
2022-09-20T09:19:45.296Z,3.80
2022-09-20T09:20:21.757Z,2.05
2022-09-20T09:20:53.631Z,2.20
2022-09-20T09:21:29.485Z,1.37
2022-09-20T09:22:04.276Z,5.18
2022-09-20T09:22:45.192Z,4.05
2022-09-20T09:23:26.247Z,1.40
2022-09-20T09:24:14.206Z,2.30
2022-09-20T09:24:46.327Z,2.33
2022-09-20T09:25:38.357Z,2.20
2022-09-20T09:26:17.190Z,1.80
2022-09-20T09:26:49.333Z,2.80
2022-09-20T09:27:21.252Z,2.62
2022-09-20T09:28:12.569Z,1.87
2022-09-20T09:28:44.487Z,2.53
2022-09-20T09:29:23.974Z,1.83
2022-09-20T09:29:58.797Z,2.95
2022-09-20T09:30:38.188Z,1.75
2022-09-20T09:31:28.025Z,4.97
2022-09-20T09:32:29.194Z,1.83
2022-09-20T09:33:29.790Z,4.28
2022-09-20T09:34:01.632Z,1.58
2022-09-20T09:34:38.704Z,1.65
2022-09-20T09:35:37.146Z,2.55